sensor_id;sensor_type;location;lat;lon;timestamp;P1;durP1;ratioP1;P2;durP2;ratioP2
47519;SDS011;33252;48.122;11.538;2023-03-03T00:02:19;51.45;;;25.27;;
47519;SDS011;33252;48.122;11.538;2023-03-03T00:04:45;57.65;;;25.30;;
47519;SDS011;33252;48.122;11.538;2023-03-03T00:07:11;54.25;;;25.13;;
47519;SDS011;33252;48.122;11.538;2023-03-03T00:09:36;57.10;;;24.92;;
47519;SDS011;33252;48.122;11.538;2023-03-03T00:12:12;56.78;;;24.55;;
47519;SDS011;33252;48.122;11.538;2023-03-03T00:14:50;63.97;;;26.35;;
47519;SDS011;33252;48.122;11.538;2023-03-03T00:17:33;62.72;;;26.75;;
47519;SDS011;33252;48.122;11.538;2023-03-03T00:19:59;56.58;;;26.88;;
47519;SDS011;33252;48.122;11.538;2023-03-03T00:22:46;52.15;;;26.15;;
47519;SDS011;33252;48.122;11.538;2023-03-03T00:27:53;57.05;;;23.80;;
47519;SDS011;33252;48.122;11.538;2023-03-03T00:30:25;59.90;;;26.60;;
47519;SDS011;33252;48.122;11.538;2023-03-03T00:32:52;55.90;;;25.88;;
47519;SDS011;33252;48.122;11.538;2023-03-03T00:35:26;61.05;;;25.42;;
47519;SDS011;33252;48.122;11.538;2023-03-03T00:37:59;54.08;;;26.08;;
47519;SDS011;33252;48.122;11.538;2023-03-03T00:40:34;49.20;;;23.52;;
47519;SDS011;33252;48.122;11.538;2023-03-03T00:43:11;59.63;;;26.02;;
47519;SDS011;33252;48.122;11.538;2023-03-03T00:45:51;59.47;;;26.42;;
47519;SDS011;33252;48.122;11.538;2023-03-03T00:48:20;49.80;;;23.13;;
47519;SDS011;33252;48.122;11.538;2023-03-03T00:50:53;60.72;;;25.52;;
47519;SDS011;33252;48.122;11.538;2023-03-03T00:53:25;54.65;;;26.60;;
47519;SDS011;33252;48.122;11.538;2023-03-03T00:55:52;52.78;;;24.73;;
47519;SDS011;33252;48.122;11.538;2023-03-03T00:58:18;57.90;;;26.80;;
47519;SDS011;33252;48.122;11.538;2023-03-03T01:00:46;66.20;;;28.13;;
47519;SDS011;33252;48.122;11.538;2023-03-03T01:03:15;55.08;;;25.38;;
47519;SDS011;33252;48.122;11.538;2023-03-03T01:05:42;56.17;;;24.13;;
47519;SDS011;33252;48.122;11.538;2023-03-03T01:08:08;56.60;;;24.52;;
47519;SDS011;33252;48.122;11.538;2023-03-03T01:10:35;60.03;;;27.13;;
47519;SDS011;33252;48.122;11.538;2023-03-03T01:13:05;53.83;;;26.42;;
47519;SDS011;33252;48.122;11.538;2023-03-03T01:15:31;57.00;;;24.02;;
47519;SDS011;33252;48.122;11.538;2023-03-03T01:17:57;59.17;;;25.30;;
47519;SDS011;33252;48.122;11.538;2023-03-03T01:20:23;50.05;;;24.58;;
47519;SDS011;33252;48.122;11.538;2023-03-03T01:22:49;53.70;;;23.60;;
47519;SDS011;33252;48.122;11.538;2023-03-03T01:25:14;61.92;;;26.23;;
47519;SDS011;33252;48.122;11.538;2023-03-03T01:27:40;53.50;;;25.85;;
47519;SDS011;33252;48.122;11.538;2023-03-03T01:30:06;61.83;;;27.42;;
47519;SDS011;33252;48.122;11.538;2023-03-03T01:32:33;57.28;;;26.63;;
47519;SDS011;33252;48.122;11.538;2023-03-03T01:34:58;60.25;;;26.33;;
47519;SDS011;33252;48.122;11.538;2023-03-03T01:37:24;52.08;;;24.80;;
47519;SDS011;33252;48.122;11.538;2023-03-03T01:39:51;60.13;;;26.55;;
47519;SDS011;33252;48.122;11.538;2023-03-03T01:42:18;58.15;;;26.70;;
47519;SDS011;33252;48.122;11.538;2023-03-03T01:44:45;51.10;;;25.08;;
47519;SDS011;33252;48.122;11.538;2023-03-03T01:47:12;60.10;;;24.17;;
47519;SDS011;33252;48.122;11.538;2023-03-03T01:49:46;55.22;;;25.52;;
47519;SDS011;33252;48.122;11.538;2023-03-03T01:52:25;54.05;;;23.63;;
47519;SDS011;33252;48.122;11.538;2023-03-03T01:54:58;55.42;;;25.30;;
47519;SDS011;33252;48.122;11.538;2023-03-03T01:57:38;61.40;;;24.42;;
47519;SDS011;33252;48.122;11.538;2023-03-03T02:00:08;65.03;;;27.08;;
47519;SDS011;33252;48.122;11.538;2023-03-03T02:02:35;62.08;;;27.90;;
47519;SDS011;33252;48.122;11.538;2023-03-03T02:05:02;57.80;;;26.88;;
47519;SDS011;33252;48.122;11.538;2023-03-03T02:07:28;60.25;;;25.05;;
47519;SDS011;33252;48.122;11.538;2023-03-03T02:12:39;53.85;;;23.52;;
47519;SDS011;33252;48.122;11.538;2023-03-03T02:15:17;54.08;;;23.20;;
47519;SDS011;33252;48.122;11.538;2023-03-03T02:17:47;56.35;;;24.42;;
47519;SDS011;33252;48.122;11.538;2023-03-03T02:28:21;55.30;;;24.05;;
47519;SDS011;33252;48.122;11.538;2023-03-03T02:30:48;60.13;;;25.27;;
47519;SDS011;33252;48.122;11.538;2023-03-03T02:33:14;61.40;;;26.77;;
47519;SDS011;33252;48.122;11.538;2023-03-03T02:35:40;55.63;;;25.23;;
47519;SDS011;33252;48.122;11.538;2023-03-03T02:38:21;53.33;;;25.30;;
47519;SDS011;33252;48.122;11.538;2023-03-03T02:40:59;58.45;;;25.50;;
47519;SDS011;33252;48.122;11.538;2023-03-03T02:43:50;54.47;;;24.58;;
47519;SDS011;33252;48.122;11.538;2023-03-03T02:46:25;53.50;;;23.33;;
47519;SDS011;33252;48.122;11.538;2023-03-03T02:48:52;50.97;;;24.05;;
47519;SDS011;33252;48.122;11.538;2023-03-03T02:51:17;59.75;;;26.27;;
47519;SDS011;33252;48.122;11.538;2023-03-03T02:53:43;55.28;;;25.60;;
47519;SDS011;33252;48.122;11.538;2023-03-03T02:56:09;55.83;;;24.42;;
47519;SDS011;33252;48.122;11.538;2023-03-03T02:58:35;49.70;;;23.77;;
47519;SDS011;33252;48.122;11.538;2023-03-03T03:01:01;55.60;;;25.08;;
47519;SDS011;33252;48.122;11.538;2023-03-03T03:03:27;51.13;;;24.33;;
47519;SDS011;33252;48.122;11.538;2023-03-03T03:05:53;49.50;;;23.65;;
47519;SDS011;33252;48.122;11.538;2023-03-03T03:08:18;56.92;;;23.90;;
47519;SDS011;33252;48.122;11.538;2023-03-03T03:10:44;49.45;;;24.02;;
47519;SDS011;33252;48.122;11.538;2023-03-03T03:13:10;54.40;;;25.70;;
47519;SDS011;33252;48.122;11.538;2023-03-03T03:15:36;55.95;;;25.17;;
47519;SDS011;33252;48.122;11.538;2023-03-03T03:18:02;57.13;;;24.75;;
47519;SDS011;33252;48.122;11.538;2023-03-03T03:20:28;55.10;;;26.17;;
47519;SDS011;33252;48.122;11.538;2023-03-03T03:22:54;55.58;;;24.88;;
47519;SDS011;33252;48.122;11.538;2023-03-03T03:25:19;58.75;;;24.13;;
47519;SDS011;33252;48.122;11.538;2023-03-03T03:27:45;56.28;;;24.30;;
47519;SDS011;33252;48.122;11.538;2023-03-03T03:30:10;55.38;;;26.20;;
47519;SDS011;33252;48.122;11.538;2023-03-03T03:32:36;56.35;;;24.13;;
47519;SDS011;33252;48.122;11.538;2023-03-03T03:35:02;61.47;;;26.05;;
47519;SDS011;33252;48.122;11.538;2023-03-03T03:37:28;55.85;;;25.92;;
47519;SDS011;33252;48.122;11.538;2023-03-03T03:39:53;53.75;;;26.10;;
47519;SDS011;33252;48.122;11.538;2023-03-03T03:42:21;56.15;;;25.23;;
47519;SDS011;33252;48.122;11.538;2023-03-03T03:44:47;58.60;;;24.75;;
47519;SDS011;33252;48.122;11.538;2023-03-03T03:47:13;61.92;;;25.35;;
47519;SDS011;33252;48.122;11.538;2023-03-03T03:49:38;57.85;;;26.83;;
47519;SDS011;33252;48.122;11.538;2023-03-03T03:52:04;58.40;;;26.13;;
47519;SDS011;33252;48.122;11.538;2023-03-03T03:54:30;56.22;;;26.30;;
47519;SDS011;33252;48.122;11.538;2023-03-03T03:56:55;56.33;;;26.75;;
47519;SDS011;33252;48.122;11.538;2023-03-03T03:59:21;53.45;;;26.08;;
47519;SDS011;33252;48.122;11.538;2023-03-03T04:01:47;58.33;;;25.75;;
47519;SDS011;33252;48.122;11.538;2023-03-03T04:04:14;56.60;;;25.80;;
47519;SDS011;33252;48.122;11.538;2023-03-03T04:06:40;50.70;;;24.77;;
47519;SDS011;33252;48.122;11.538;2023-03-03T04:09:05;56.08;;;26.77;;
47519;SDS011;33252;48.122;11.538;2023-03-03T04:11:31;56.50;;;25.67;;
47519;SDS011;33252;48.122;11.538;2023-03-03T04:13:57;60.50;;;26.95;;
47519;SDS011;33252;48.122;11.538;2023-03-03T04:16:22;60.15;;;27.83;;
47519;SDS011;33252;48.122;11.538;2023-03-03T04:18:48;52.95;;;25.25;;
47519;SDS011;33252;48.122;11.538;2023-03-03T04:21:14;52.92;;;25.80;;
47519;SDS011;33252;48.122;11.538;2023-03-03T04:23:40;54.47;;;25.20;;
47519;SDS011;33252;48.122;11.538;2023-03-03T04:26:06;60.20;;;25.63;;
47519;SDS011;33252;48.122;11.538;2023-03-03T04:28:32;56.72;;;26.77;;
47519;SDS011;33252;48.122;11.538;2023-03-03T04:30:58;57.50;;;26.33;;
47519;SDS011;33252;48.122;11.538;2023-03-03T04:33:24;58.25;;;25.77;;
47519;SDS011;33252;48.122;11.538;2023-03-03T04:35:50;53.50;;;25.40;;
47519;SDS011;33252;48.122;11.538;2023-03-03T04:38:16;57.50;;;26.13;;
47519;SDS011;33252;48.122;11.538;2023-03-03T04:40:42;58.83;;;25.83;;
47519;SDS011;33252;48.122;11.538;2023-03-03T04:43:08;52.20;;;24.30;;
47519;SDS011;33252;48.122;11.538;2023-03-03T04:45:34;57.55;;;24.85;;
47519;SDS011;33252;48.122;11.538;2023-03-03T04:48:01;56.08;;;25.50;;
47519;SDS011;33252;48.122;11.538;2023-03-03T04:50:26;51.00;;;23.35;;
47519;SDS011;33252;48.122;11.538;2023-03-03T04:52:52;49.00;;;25.88;;
47519;SDS011;33252;48.122;11.538;2023-03-03T04:55:18;56.60;;;24.75;;
47519;SDS011;33252;48.122;11.538;2023-03-03T04:57:44;58.30;;;26.83;;
47519;SDS011;33252;48.122;11.538;2023-03-03T05:00:10;64.55;;;28.20;;
47519;SDS011;33252;48.122;11.538;2023-03-03T05:02:40;60.88;;;28.48;;
47519;SDS011;33252;48.122;11.538;2023-03-03T05:05:06;60.20;;;27.52;;
47519;SDS011;33252;48.122;11.538;2023-03-03T05:07:37;49.47;;;23.63;;
47519;SDS011;33252;48.122;11.538;2023-03-03T05:10:03;57.78;;;27.15;;
47519;SDS011;33252;48.122;11.538;2023-03-03T05:12:29;62.05;;;27.85;;
47519;SDS011;33252;48.122;11.538;2023-03-03T05:14:55;57.08;;;26.08;;
47519;SDS011;33252;48.122;11.538;2023-03-03T05:17:21;62.65;;;27.30;;
47519;SDS011;33252;48.122;11.538;2023-03-03T05:19:47;60.53;;;26.92;;
47519;SDS011;33252;48.122;11.538;2023-03-03T05:22:12;54.67;;;25.30;;
47519;SDS011;33252;48.122;11.538;2023-03-03T05:24:38;60.85;;;29.05;;
47519;SDS011;33252;48.122;11.538;2023-03-03T05:27:04;58.83;;;26.17;;
47519;SDS011;33252;48.122;11.538;2023-03-03T05:29:30;65.13;;;28.65;;
47519;SDS011;33252;48.122;11.538;2023-03-03T05:31:59;60.80;;;27.63;;
47519;SDS011;33252;48.122;11.538;2023-03-03T05:34:25;53.88;;;25.20;;
47519;SDS011;33252;48.122;11.538;2023-03-03T05:36:51;58.05;;;26.67;;
47519;SDS011;33252;48.122;11.538;2023-03-03T05:39:16;57.75;;;26.55;;
47519;SDS011;33252;48.122;11.538;2023-03-03T05:41:42;63.85;;;27.30;;
47519;SDS011;33252;48.122;11.538;2023-03-03T05:44:08;60.10;;;29.10;;
47519;SDS011;33252;48.122;11.538;2023-03-03T05:46:34;63.97;;;26.58;;
47519;SDS011;33252;48.122;11.538;2023-03-03T05:49:00;67.05;;;28.23;;
47519;SDS011;33252;48.122;11.538;2023-03-03T05:51:25;60.10;;;28.83;;
47519;SDS011;33252;48.122;11.538;2023-03-03T05:53:51;64.78;;;28.02;;
47519;SDS011;33252;48.122;11.538;2023-03-03T05:56:17;66.15;;;30.15;;
47519;SDS011;33252;48.122;11.538;2023-03-03T05:58:43;65.05;;;29.10;;
47519;SDS011;33252;48.122;11.538;2023-03-03T06:01:08;60.20;;;29.15;;
47519;SDS011;33252;48.122;11.538;2023-03-03T06:03:35;64.30;;;28.65;;
47519;SDS011;33252;48.122;11.538;2023-03-03T06:06:01;68.30;;;31.02;;
47519;SDS011;33252;48.122;11.538;2023-03-03T06:08:27;68.00;;;30.00;;
47519;SDS011;33252;48.122;11.538;2023-03-03T06:10:53;65.63;;;27.83;;
47519;SDS011;33252;48.122;11.538;2023-03-03T06:13:19;73.50;;;31.88;;
47519;SDS011;33252;48.122;11.538;2023-03-03T06:15:44;71.10;;;30.77;;
47519;SDS011;33252;48.122;11.538;2023-03-03T06:18:10;66.97;;;29.75;;
47519;SDS011;33252;48.122;11.538;2023-03-03T06:20:36;61.92;;;28.70;;
47519;SDS011;33252;48.122;11.538;2023-03-03T06:23:02;71.68;;;29.42;;
47519;SDS011;33252;48.122;11.538;2023-03-03T06:25:28;65.70;;;27.52;;
47519;SDS011;33252;48.122;11.538;2023-03-03T06:27:54;73.05;;;32.60;;
47519;SDS011;33252;48.122;11.538;2023-03-03T06:30:20;63.65;;;28.40;;
47519;SDS011;33252;48.122;11.538;2023-03-03T06:32:46;69.80;;;31.45;;
47519;SDS011;33252;48.122;11.538;2023-03-03T06:35:11;72.43;;;31.20;;
47519;SDS011;33252;48.122;11.538;2023-03-03T06:37:37;71.75;;;30.02;;
47519;SDS011;33252;48.122;11.538;2023-03-03T06:40:03;71.55;;;31.38;;
47519;SDS011;33252;48.122;11.538;2023-03-03T06:42:30;67.20;;;32.35;;
47519;SDS011;33252;48.122;11.538;2023-03-03T06:44:55;69.50;;;31.40;;
47519;SDS011;33252;48.122;11.538;2023-03-03T06:47:21;62.35;;;28.63;;
47519;SDS011;33252;48.122;11.538;2023-03-03T06:49:47;70.30;;;32.67;;
47519;SDS011;33252;48.122;11.538;2023-03-03T06:52:13;75.35;;;31.88;;
47519;SDS011;33252;48.122;11.538;2023-03-03T06:54:44;69.72;;;30.92;;
47519;SDS011;33252;48.122;11.538;2023-03-03T06:59:47;66.18;;;28.25;;
47519;SDS011;33252;48.122;11.538;2023-03-03T07:02:16;67.65;;;31.50;;
47519;SDS011;33252;48.122;11.538;2023-03-03T07:04:42;76.65;;;31.58;;
47519;SDS011;33252;48.122;11.538;2023-03-03T07:07:19;66.95;;;30.73;;
47519;SDS011;33252;48.122;11.538;2023-03-03T07:09:50;73.28;;;33.83;;
47519;SDS011;33252;48.122;11.538;2023-03-03T07:12:21;76.18;;;33.42;;
47519;SDS011;33252;48.122;11.538;2023-03-03T07:17:41;77.43;;;31.17;;
47519;SDS011;33252;48.122;11.538;2023-03-03T07:20:14;76.03;;;34.22;;
47519;SDS011;33252;48.122;11.538;2023-03-03T07:22:43;69.25;;;31.15;;
47519;SDS011;33252;48.122;11.538;2023-03-03T07:25:30;64.55;;;30.80;;
47519;SDS011;33252;48.122;11.538;2023-03-03T07:28:00;73.30;;;31.35;;
47519;SDS011;33252;48.122;11.538;2023-03-03T07:30:40;80.00;;;34.92;;
47519;SDS011;33252;48.122;11.538;2023-03-03T07:33:07;73.03;;;30.95;;
47519;SDS011;33252;48.122;11.538;2023-03-03T07:35:50;71.45;;;30.92;;
47519;SDS011;33252;48.122;11.538;2023-03-03T07:41:01;71.40;;;33.78;;
47519;SDS011;33252;48.122;11.538;2023-03-03T07:49:21;65.32;;;29.65;;
47519;SDS011;33252;48.122;11.538;2023-03-03T07:51:55;65.18;;;31.85;;
47519;SDS011;33252;48.122;11.538;2023-03-03T07:56:58;71.72;;;32.42;;
47519;SDS011;33252;48.122;11.538;2023-03-03T07:59:36;69.80;;;32.27;;
47519;SDS011;33252;48.122;11.538;2023-03-03T08:02:32;78.28;;;34.95;;
47519;SDS011;33252;48.122;11.538;2023-03-03T08:07:49;69.90;;;31.38;;
47519;SDS011;33252;48.122;11.538;2023-03-03T08:10:48;81.90;;;36.35;;
47519;SDS011;33252;48.122;11.538;2023-03-03T08:13:19;74.15;;;35.92;;
47519;SDS011;33252;48.122;11.538;2023-03-03T08:15:48;71.47;;;35.20;;
47519;SDS011;33252;48.122;11.538;2023-03-03T08:18:45;69.25;;;33.95;;
47519;SDS011;33252;48.122;11.538;2023-03-03T08:21:15;73.68;;;35.20;;
47519;SDS011;33252;48.122;11.538;2023-03-03T08:23:43;74.15;;;34.65;;
47519;SDS011;33252;48.122;11.538;2023-03-03T08:26:09;71.28;;;32.35;;
47519;SDS011;33252;48.122;11.538;2023-03-03T08:28:37;76.55;;;34.30;;
47519;SDS011;33252;48.122;11.538;2023-03-03T08:31:03;72.75;;;33.45;;
47519;SDS011;33252;48.122;11.538;2023-03-03T08:33:29;80.55;;;35.63;;
47519;SDS011;33252;48.122;11.538;2023-03-03T08:35:55;74.97;;;34.90;;
47519;SDS011;33252;48.122;11.538;2023-03-03T08:38:20;72.65;;;33.47;;
47519;SDS011;33252;48.122;11.538;2023-03-03T08:40:47;71.20;;;34.70;;
47519;SDS011;33252;48.122;11.538;2023-03-03T08:43:13;75.35;;;33.47;;
47519;SDS011;33252;48.122;11.538;2023-03-03T08:45:44;71.57;;;33.80;;
47519;SDS011;33252;48.122;11.538;2023-03-03T08:48:14;79.93;;;33.13;;
47519;SDS011;33252;48.122;11.538;2023-03-03T08:50:40;74.95;;;34.13;;
47519;SDS011;33252;48.122;11.538;2023-03-03T08:53:06;71.22;;;34.60;;
47519;SDS011;33252;48.122;11.538;2023-03-03T08:55:32;78.70;;;34.65;;
47519;SDS011;33252;48.122;11.538;2023-03-03T08:57:58;80.95;;;34.50;;
47519;SDS011;33252;48.122;11.538;2023-03-03T09:00:24;75.28;;;32.85;;
47519;SDS011;33252;48.122;11.538;2023-03-03T09:02:51;72.75;;;35.60;;
47519;SDS011;33252;48.122;11.538;2023-03-03T09:05:17;75.00;;;32.45;;
47519;SDS011;33252;48.122;11.538;2023-03-03T09:07:44;72.93;;;35.00;;
47519;SDS011;33252;48.122;11.538;2023-03-03T09:10:12;74.22;;;34.33;;
47519;SDS011;33252;48.122;11.538;2023-03-03T09:12:41;71.22;;;32.83;;
47519;SDS011;33252;48.122;11.538;2023-03-03T09:15:18;67.18;;;33.30;;
47519;SDS011;33252;48.122;11.538;2023-03-03T09:17:49;85.80;;;37.10;;
47519;SDS011;33252;48.122;11.538;2023-03-03T09:20:35;77.93;;;34.83;;
47519;SDS011;33252;48.122;11.538;2023-03-03T09:29:08;70.45;;;32.00;;
47519;SDS011;33252;48.122;11.538;2023-03-03T09:31:48;70.78;;;33.08;;
47519;SDS011;33252;48.122;11.538;2023-03-03T09:36:47;72.78;;;32.88;;
47519;SDS011;33252;48.122;11.538;2023-03-03T09:39:18;74.43;;;33.60;;
47519;SDS011;33252;48.122;11.538;2023-03-03T09:44:26;70.70;;;33.70;;
47519;SDS011;33252;48.122;11.538;2023-03-03T09:50:01;74.93;;;34.13;;
47519;SDS011;33252;48.122;11.538;2023-03-03T10:11:02;68.40;;;35.33;;
47519;SDS011;33252;48.122;11.538;2023-03-03T10:13:51;72.72;;;33.85;;
47519;SDS011;33252;48.122;11.538;2023-03-03T10:19:23;71.55;;;32.15;;
47519;SDS011;33252;48.122;11.538;2023-03-03T10:22:11;71.80;;;33.92;;
47519;SDS011;33252;48.122;11.538;2023-03-03T10:25:01;75.72;;;36.58;;
47519;SDS011;33252;48.122;11.538;2023-03-03T10:41:31;75.47;;;33.65;;
47519;SDS011;33252;48.122;11.538;2023-03-03T10:49:55;67.22;;;32.78;;
47519;SDS011;33252;48.122;11.538;2023-03-03T10:55:47;65.68;;;31.70;;
47519;SDS011;33252;48.122;11.538;2023-03-03T10:58:20;69.13;;;33.35;;
47519;SDS011;33252;48.122;11.538;2023-03-03T11:06:28;73.38;;;33.42;;
47519;SDS011;33252;48.122;11.538;2023-03-03T11:27:57;71.90;;;36.13;;
47519;SDS011;33252;48.122;11.538;2023-03-03T11:30:38;71.43;;;35.35;;
47519;SDS011;33252;48.122;11.538;2023-03-03T11:33:11;74.13;;;34.15;;
47519;SDS011;33252;48.122;11.538;2023-03-03T11:40:54;69.47;;;32.45;;
47519;SDS011;33252;48.122;11.538;2023-03-03T11:46:06;67.53;;;34.20;;
47519;SDS011;33252;48.122;11.538;2023-03-03T11:51:19;76.47;;;35.55;;
47519;SDS011;33252;48.122;11.538;2023-03-03T12:04:39;69.03;;;34.35;;
47519;SDS011;33252;48.122;11.538;2023-03-03T12:12:42;67.38;;;34.53;;
47519;SDS011;33252;48.122;11.538;2023-03-03T12:15:19;65.00;;;32.95;;
47519;SDS011;33252;48.122;11.538;2023-03-03T12:17:58;69.90;;;34.60;;
47519;SDS011;33252;48.122;11.538;2023-03-03T12:28:49;65.22;;;33.50;;
47519;SDS011;33252;48.122;11.538;2023-03-03T12:31:43;65.18;;;31.85;;
47519;SDS011;33252;48.122;11.538;2023-03-03T12:42:37;60.95;;;32.70;;
47519;SDS011;33252;48.122;11.538;2023-03-03T12:48:18;66.65;;;33.25;;
47519;SDS011;33252;48.122;11.538;2023-03-03T12:53:54;75.65;;;34.83;;
47519;SDS011;33252;48.122;11.538;2023-03-03T12:56:47;74.45;;;39.05;;
47519;SDS011;33252;48.122;11.538;2023-03-03T12:59:37;70.10;;;33.25;;
47519;SDS011;33252;48.122;11.538;2023-03-03T13:02:48;64.97;;;32.15;;
47519;SDS011;33252;48.122;11.538;2023-03-03T13:05:15;70.53;;;34.78;;
47519;SDS011;33252;48.122;11.538;2023-03-03T13:16:40;63.05;;;31.95;;
47519;SDS011;33252;48.122;11.538;2023-03-03T13:19:14;64.57;;;33.15;;
47519;SDS011;33252;48.122;11.538;2023-03-03T13:24:52;65.78;;;32.70;;
47519;SDS011;33252;48.122;11.538;2023-03-03T13:27:38;63.92;;;33.47;;
47519;SDS011;33252;48.122;11.538;2023-03-03T13:30:16;61.22;;;31.40;;
47519;SDS011;33252;48.122;11.538;2023-03-03T13:38:11;58.22;;;29.77;;
47519;SDS011;33252;48.122;11.538;2023-03-03T13:40:42;69.55;;;34.53;;
47519;SDS011;33252;48.122;11.538;2023-03-03T13:43:18;60.58;;;32.17;;
47519;SDS011;33252;48.122;11.538;2023-03-03T13:46:06;55.08;;;30.02;;
47519;SDS011;33252;48.122;11.538;2023-03-03T13:52:07;53.87;;;30.00;;
47519;SDS011;33252;48.122;11.538;2023-03-03T14:05:56;56.95;;;31.48;;
47519;SDS011;33252;48.122;11.538;2023-03-03T14:17:01;59.63;;;32.58;;
47519;SDS011;33252;48.122;11.538;2023-03-03T14:19:47;53.97;;;30.17;;
47519;SDS011;33252;48.122;11.538;2023-03-03T14:22:25;55.87;;;30.87;;
47519;SDS011;33252;48.122;11.538;2023-03-03T14:25:03;53.42;;;30.75;;
47519;SDS011;33252;48.122;11.538;2023-03-03T14:27:36;51.13;;;32.17;;
47519;SDS011;33252;48.122;11.538;2023-03-03T14:35:35;51.35;;;28.88;;
47519;SDS011;33252;48.122;11.538;2023-03-03T14:41:05;55.33;;;29.33;;
47519;SDS011;33252;48.122;11.538;2023-03-03T14:43:36;49.22;;;29.58;;
47519;SDS011;33252;48.122;11.538;2023-03-03T14:46:45;47.85;;;30.50;;
47519;SDS011;33252;48.122;11.538;2023-03-03T14:48:58;54.53;;;31.50;;
47519;SDS011;33252;48.122;11.538;2023-03-03T14:51:39;52.00;;;31.15;;
47519;SDS011;33252;48.122;11.538;2023-03-03T14:54:26;49.83;;;30.50;;
47519;SDS011;33252;48.122;11.538;2023-03-03T14:59:22;48.35;;;29.42;;
47519;SDS011;33252;48.122;11.538;2023-03-03T15:01:57;52.28;;;30.90;;
47519;SDS011;33252;48.122;11.538;2023-03-03T15:04:40;53.28;;;29.73;;
47519;SDS011;33252;48.122;11.538;2023-03-03T15:07:26;50.25;;;29.38;;
47519;SDS011;33252;48.122;11.538;2023-03-03T15:10:00;50.22;;;30.08;;
47519;SDS011;33252;48.122;11.538;2023-03-03T15:12:34;54.45;;;29.08;;
47519;SDS011;33252;48.122;11.538;2023-03-03T15:17:34;51.63;;;28.80;;
47519;SDS011;33252;48.122;11.538;2023-03-03T15:25:08;51.90;;;30.40;;
47519;SDS011;33252;48.122;11.538;2023-03-03T15:27:36;50.47;;;30.20;;
47519;SDS011;33252;48.122;11.538;2023-03-03T15:40:59;48.95;;;28.80;;
47519;SDS011;33252;48.122;11.538;2023-03-03T15:43:50;48.90;;;28.80;;
47519;SDS011;33252;48.122;11.538;2023-03-03T15:46:27;44.40;;;28.45;;
47519;SDS011;33252;48.122;11.538;2023-03-03T16:05:54;47.05;;;28.88;;
47519;SDS011;33252;48.122;11.538;2023-03-03T16:17:13;51.70;;;29.23;;
47519;SDS011;33252;48.122;11.538;2023-03-03T16:19:44;57.80;;;29.02;;
47519;SDS011;33252;48.122;11.538;2023-03-03T16:36:21;57.05;;;30.52;;
47519;SDS011;33252;48.122;11.538;2023-03-03T16:41:53;52.78;;;30.92;;
47519;SDS011;33252;48.122;11.538;2023-03-03T16:44:33;55.53;;;29.98;;
47519;SDS011;33252;48.122;11.538;2023-03-03T16:47:22;56.88;;;28.10;;
47519;SDS011;33252;48.122;11.538;2023-03-03T16:50:22;49.45;;;29.05;;
47519;SDS011;33252;48.122;11.538;2023-03-03T17:09:58;58.85;;;30.73;;
47519;SDS011;33252;48.122;11.538;2023-03-03T17:12:45;53.13;;;30.25;;
47519;SDS011;33252;48.122;11.538;2023-03-03T17:15:18;62.63;;;32.85;;
47519;SDS011;33252;48.122;11.538;2023-03-03T17:18:00;70.13;;;32.22;;
47519;SDS011;33252;48.122;11.538;2023-03-03T17:20:48;58.17;;;29.88;;
47519;SDS011;33252;48.122;11.538;2023-03-03T17:45:41;63.65;;;33.35;;
47519;SDS011;33252;48.122;11.538;2023-03-03T17:51:22;61.63;;;34.80;;
47519;SDS011;33252;48.122;11.538;2023-03-03T17:57:08;63.50;;;33.70;;
47519;SDS011;33252;48.122;11.538;2023-03-03T18:20:29;69.00;;;37.60;;
47519;SDS011;33252;48.122;11.538;2023-03-03T18:23:21;71.28;;;36.20;;
47519;SDS011;33252;48.122;11.538;2023-03-03T18:31:26;70.93;;;37.35;;
47519;SDS011;33252;48.122;11.538;2023-03-03T18:37:00;70.50;;;36.10;;
47519;SDS011;33252;48.122;11.538;2023-03-03T18:42:34;109.40;;;58.03;;
47519;SDS011;33252;48.122;11.538;2023-03-03T18:50:37;89.93;;;46.47;;
47519;SDS011;33252;48.122;11.538;2023-03-03T18:55:52;81.88;;;39.70;;
47519;SDS011;33252;48.122;11.538;2023-03-03T18:58:25;76.25;;;39.08;;
47519;SDS011;33252;48.122;11.538;2023-03-03T19:00:56;78.82;;;38.90;;
47519;SDS011;33252;48.122;11.538;2023-03-03T19:08:59;80.82;;;39.85;;
47519;SDS011;33252;48.122;11.538;2023-03-03T19:11:31;84.72;;;39.65;;
47519;SDS011;33252;48.122;11.538;2023-03-03T19:16:58;69.00;;;36.83;;
47519;SDS011;33252;48.122;11.538;2023-03-03T19:25:15;76.35;;;37.55;;
47519;SDS011;33252;48.122;11.538;2023-03-03T19:30:20;68.28;;;37.85;;
47519;SDS011;33252;48.122;11.538;2023-03-03T19:38:29;72.65;;;37.35;;
47519;SDS011;33252;48.122;11.538;2023-03-03T19:41:19;69.13;;;34.30;;
47519;SDS011;33252;48.122;11.538;2023-03-03T19:47:07;71.90;;;37.08;;
47519;SDS011;33252;48.122;11.538;2023-03-03T19:52:38;71.10;;;34.00;;
47519;SDS011;33252;48.122;11.538;2023-03-03T19:55:23;69.22;;;34.25;;
47519;SDS011;33252;48.122;11.538;2023-03-03T19:58:24;74.93;;;36.13;;
47519;SDS011;33252;48.122;11.538;2023-03-03T20:01:00;76.97;;;36.92;;
47519;SDS011;33252;48.122;11.538;2023-03-03T20:06:31;70.72;;;37.33;;
47519;SDS011;33252;48.122;11.538;2023-03-03T20:09:25;67.63;;;34.78;;
47519;SDS011;33252;48.122;11.538;2023-03-03T20:14:45;72.07;;;37.40;;
47519;SDS011;33252;48.122;11.538;2023-03-03T20:20:28;85.93;;;36.97;;
47519;SDS011;33252;48.122;11.538;2023-03-03T20:44:06;79.30;;;38.20;;
47519;SDS011;33252;48.122;11.538;2023-03-03T20:46:39;80.78;;;37.88;;
47519;SDS011;33252;48.122;11.538;2023-03-03T20:57:58;77.97;;;38.85;;
47519;SDS011;33252;48.122;11.538;2023-03-03T21:00:36;76.80;;;36.17;;
47519;SDS011;33252;48.122;11.538;2023-03-03T21:03:32;73.45;;;36.70;;
47519;SDS011;33252;48.122;11.538;2023-03-03T21:06:06;74.20;;;37.08;;
47519;SDS011;33252;48.122;11.538;2023-03-03T21:11:38;84.93;;;40.05;;
47519;SDS011;33252;48.122;11.538;2023-03-03T21:14:12;82.47;;;37.88;;
47519;SDS011;33252;48.122;11.538;2023-03-03T21:16:44;81.32;;;38.85;;
47519;SDS011;33252;48.122;11.538;2023-03-03T21:19:11;87.22;;;38.15;;
47519;SDS011;33252;48.122;11.538;2023-03-03T21:21:46;90.57;;;39.10;;
47519;SDS011;33252;48.122;11.538;2023-03-03T21:24:13;79.20;;;37.88;;
47519;SDS011;33252;48.122;11.538;2023-03-03T21:26:59;74.93;;;38.58;;
47519;SDS011;33252;48.122;11.538;2023-03-03T21:29:26;76.93;;;36.58;;
47519;SDS011;33252;48.122;11.538;2023-03-03T21:32:00;79.90;;;38.25;;
47519;SDS011;33252;48.122;11.538;2023-03-03T21:34:32;83.00;;;38.88;;
47519;SDS011;33252;48.122;11.538;2023-03-03T21:37:09;81.60;;;38.42;;
47519;SDS011;33252;48.122;11.538;2023-03-03T21:39:39;81.93;;;37.30;;
47519;SDS011;33252;48.122;11.538;2023-03-03T21:44:47;79.43;;;39.80;;
47519;SDS011;33252;48.122;11.538;2023-03-03T21:47:16;82.30;;;38.90;;
47519;SDS011;33252;48.122;11.538;2023-03-03T21:49:42;78.80;;;38.47;;
47519;SDS011;33252;48.122;11.538;2023-03-03T21:52:09;77.75;;;38.53;;